Time;durP1;ratioP1;P1;durP2;ratioP2;P2;SDS_P1;SDS_P2;PMS_P1;PMS_P2;Temp;Humidity;BMP_temperature;BMP_pressure;BME280_temperature;BME280_humidity;BME280_pressure;Samples;Min_cycle;Max_cycle;Signal;HPM_P1;HPM_P2
2022/12/18 00:00:47;;;;;;;3.22;2.92;;;;;;;;;;4574769;27;20036;-63
2022/12/18 00:02:58;;;;;;;3.35;3.05;;;;;;;;;;4571488;22;20044;-63
2022/12/18 00:05:08;;;;;;;3.20;2.72;;;;;;;;;;4582051;27;20039;-63
2022/12/18 00:07:19;;;;;;;3.42;3.13;;;;;;;;;;4581124;27;20036;-63
2022/12/18 00:09:29;;;;;;;3.20;2.90;;;;;;;;;;4583216;27;20031;-63
2022/12/18 00:11:39;;;;;;;3.17;2.88;;;;;;;;;;4581424;27;20487;-63
2022/12/18 00:13:50;;;;;;;3.40;3.08;;;;;;;;;;4580355;27;20048;-63
2022/12/18 00:16:02;;;;;;;3.35;3.03;;;;;;;;;;4581162;27;20032;-63
2022/12/18 00:18:12;;;;;;;3.38;3.08;;;;;;;;;;4547835;27;20044;-63
2022/12/18 00:20:25;;;;;;;3.28;2.97;;;;;;;;;;4581603;27;20028;-63
2022/12/18 00:22:35;;;;;;;3.35;3.05;;;;;;;;;;4580924;27;20074;-63
2022/12/18 00:24:46;;;;;;;3.20;2.90;;;;;;;;;;4566469;27;20039;-63
2022/12/18 00:26:56;;;;;;;3.20;2.90;;;;;;;;;;4581603;27;20039;-63
2022/12/18 00:29:08;;;;;;;3.90;3.20;;;;;;;;;;4582549;27;20055;-64
2022/12/18 00:31:20;;;;;;;3.50;3.20;;;;;;;;;;4562212;27;20028;-63
2022/12/18 00:33:30;;;;;;;3.42;2.97;;;;;;;;;;4581851;27;20060;-63
2022/12/18 00:35:41;;;;;;;3.38;3.08;;;;;;;;;;4581530;27;20123;-63
2022/12/18 00:37:51;;;;;;;3.53;3.22;;;;;;;;;;4565759;27;20024;-63
2022/12/18 00:40:02;;;;;;;3.30;3.00;;;;;;;;;;4581012;27;20042;-63
2022/12/18 00:44:42;;;;;;;3.60;3.30;;;;;;;;;;4582143;27;20032;-63
2022/12/18 00:46:52;;;;;;;3.35;3.03;;;;;;;;;;4565686;27;20035;-63
2022/12/18 00:49:03;;;;;;;3.42;2.92;;;;;;;;;;4572676;27;20040;-63
2022/12/18 00:51:13;;;;;;;3.40;3.08;;;;;;;;;;4580558;27;20464;-63
2022/12/18 00:53:23;;;;;;;3.28;2.97;;;;;;;;;;4565954;27;20117;-63
2022/12/18 00:55:34;;;;;;;3.08;2.80;;;;;;;;;;4581846;27;20043;-63
2022/12/18 00:57:44;;;;;;;3.05;2.75;;;;;;;;;;4562957;27;20028;-63
2022/12/18 00:59:55;;;;;;;3.35;2.92;;;;;;;;;;4549736;27;20040;-63
2022/12/18 01:02:06;;;;;;;4.30;3.20;;;;;;;;;;4582542;27;20032;-63
2022/12/18 01:04:16;;;;;;;3.38;3.00;;;;;;;;;;4582086;27;20032;-63
2022/12/18 01:06:29;;;;;;;3.33;3.03;;;;;;;;;;4548559;27;20032;-63
2022/12/18 01:08:39;;;;;;;3.40;3.10;;;;;;;;;;4580882;27;20032;-63
2022/12/18 01:10:50;;;;;;;3.13;2.83;;;;;;;;;;4581725;27;20534;-63
2022/12/18 01:13:00;;;;;;;3.58;3.28;;;;;;;;;;4581984;27;20169;-63
2022/12/18 01:15:12;;;;;;;3.08;2.78;;;;;;;;;;4580008;27;20036;-63
2022/12/18 01:17:23;;;;;;;3.03;2.70;;;;;;;;;;4572901;27;20040;-63
2022/12/18 01:19:33;;;;;;;3.60;2.95;;;;;;;;;;4579924;27;20036;-63
2022/12/18 01:21:43;;;;;;;3.20;2.90;;;;;;;;;;4580443;27;20040;-63
2022/12/18 01:23:54;;;;;;;3.40;3.10;;;;;;;;;;4582466;27;20034;-63
2022/12/18 01:26:07;;;;;;;3.05;2.75;;;;;;;;;;4581143;27;20028;-63
2022/12/18 01:28:19;;;;;;;3.22;2.92;;;;;;;;;;4580859;27;20036;-63
2022/12/18 01:30:29;;;;;;;3.45;3.10;;;;;;;;;;4565184;27;20467;-63
2022/12/18 01:32:39;;;;;;;2.95;2.67;;;;;;;;;;4579991;27;20040;-62
2022/12/18 01:34:50;;;;;;;3.38;3.08;;;;;;;;;;4581454;27;20028;-63
2022/12/18 01:37:02;;;;;;;3.70;3.10;;;;;;;;;;4582432;27;20148;-63
2022/12/18 01:39:13;;;;;;;3.05;2.83;;;;;;;;;;4582520;27;21554;-62
2022/12/18 01:42:01;;;;;;;3.20;2.90;;;;;;;;;;4580661;27;20032;-63
2022/12/18 01:43:59;;;;;;;3.00;2.70;;;;;;;;;;4567698;27;20078;-63
2022/12/18 01:46:09;;;;;;;3.63;2.70;;;;;;;;;;4565567;27;20033;-63
2022/12/18 01:48:19;;;;;;;3.78;3.33;;;;;;;;;;4584543;27;20123;-63
2022/12/18 01:50:38;;;;;;;3.20;2.90;;;;;;;;;;4585117;27;20055;-63
2022/12/18 01:52:53;;;;;;;3.85;2.80;;;;;;;;;;4583553;27;20051;-63
2022/12/18 01:55:04;;;;;;;3.17;2.88;;;;;;;;;;4584294;27;20032;-63
2022/12/18 01:57:15;;;;;;;3.55;3.20;;;;;;;;;;4585351;27;20101;-63
2022/12/18 01:59:31;;;;;;;2.95;2.72;;;;;;;;;;4568343;27;20564;-63
2022/12/18 02:01:41;;;;;;;2.85;2.65;;;;;;;;;;4583609;27;20131;-63
2022/12/18 02:03:53;;;;;;;3.10;2.80;;;;;;;;;;4569131;27;20032;-63
2022/12/18 02:06:29;;;;;;;3.35;3.05;;;;;;;;;;4584511;27;20738;-63
2022/12/18 02:09:10;;;;;;;3.55;2.70;;;;;;;;;;4565100;27;20040;-63
2022/12/18 02:11:32;;;;;;;3.13;2.70;;;;;;;;;;4552334;27;20047;-63
2022/12/18 02:13:57;;;;;;;3.13;2.83;;;;;;;;;;4565127;27;20821;-63
2022/12/18 02:16:18;;;;;;;3.50;2.40;;;;;;;;;;4569929;27;20149;-63
2022/12/18 02:18:31;;;;;;;3.00;2.70;;;;;;;;;;4585496;27;20028;-63
2022/12/18 02:20:45;;;;;;;2.97;2.67;;;;;;;;;;4584324;27;20106;-62
2022/12/18 02:23:04;;;;;;;3.15;2.70;;;;;;;;;;4585066;27;20147;-62
2022/12/18 02:25:23;;;;;;;3.03;2.72;;;;;;;;;;4575967;27;20039;-62
2022/12/18 02:27:34;;;;;;;2.85;2.58;;;;;;;;;;4574724;27;20040;-63
2022/12/18 02:29:51;;;;;;;2.60;2.40;;;;;;;;;;4569666;27;20029;-63
2022/12/18 02:32:04;;;;;;;2.55;2.35;;;;;;;;;;4564942;27;20029;-63
2022/12/18 02:34:16;;;;;;;2.70;2.50;;;;;;;;;;4568554;27;20072;-63
2022/12/18 02:36:27;;;;;;;2.70;2.50;;;;;;;;;;4575035;27;20738;-63
2022/12/18 02:38:39;;;;;;;2.63;2.42;;;;;;;;;;4574946;27;20032;-62
2022/12/18 02:40:56;;;;;;;2.92;2.53;;;;;;;;;;4568686;27;20852;-63
2022/12/18 02:43:14;;;;;;;2.95;2.65;;;;;;;;;;4567973;27;20040;-62
2022/12/18 02:45:24;;;;;;;2.80;2.60;;;;;;;;;;4565102;27;20685;-63
2022/12/18 02:47:37;;;;;;;3.22;2.92;;;;;;;;;;4575189;27;20129;-63
2022/12/18 02:50:13;;;;;;;2.97;2.63;;;;;;;;;;4564417;27;20036;-63
2022/12/18 02:52:23;;;;;;;2.80;2.60;;;;;;;;;;4570654;27;20044;-63
2022/12/18 02:54:43;;;;;;;3.75;2.95;;;;;;;;;;4569024;27;20037;-63
2022/12/18 02:56:55;;;;;;;2.97;2.60;;;;;;;;;;4584361;27;20570;-63
2022/12/18 02:59:15;;;;;;;2.92;2.58;;;;;;;;;;4574985;27;20036;-63
2022/12/18 03:01:31;;;;;;;3.50;2.60;;;;;;;;;;4582669;27;20028;-63
2022/12/18 03:03:51;;;;;;;2.70;2.50;;;;;;;;;;4582526;27;20036;-63
2022/12/18 03:06:07;;;;;;;3.10;2.80;;;;;;;;;;4574619;27;20531;-63
2022/12/18 03:08:20;;;;;;;2.63;2.42;;;;;;;;;;4566004;27;20047;-63
2022/12/18 03:10:35;;;;;;;3.25;2.50;;;;;;;;;;4565932;27;21015;-63
2022/12/18 03:12:56;;;;;;;2.35;2.15;;;;;;;;;;4564796;27;20040;-63
2022/12/18 03:15:06;;;;;;;2.80;2.60;;;;;;;;;;4558128;27;20067;-64
2022/12/18 03:17:18;;;;;;;2.63;2.38;;;;;;;;;;4566913;27;20075;-63
2022/12/18 03:19:31;;;;;;;2.60;2.40;;;;;;;;;;4581620;27;20086;-63
2022/12/18 03:21:45;;;;;;;2.67;2.40;;;;;;;;;;4582907;27;20028;-63
2022/12/18 03:23:58;;;;;;;2.78;2.55;;;;;;;;;;4564389;27;20029;-63
2022/12/18 03:26:12;;;;;;;2.60;2.40;;;;;;;;;;4565069;27;20040;-63
2022/12/18 03:28:24;;;;;;;3.10;2.50;;;;;;;;;;4584376;27;20026;-63
2022/12/18 03:30:43;;;;;;;2.42;2.20;;;;;;;;;;4567710;27;20143;-63
2022/12/18 03:32:58;;;;;;;2.83;2.60;;;;;;;;;;4582196;27;20182;-63
2022/12/18 03:35:10;;;;;;;2.90;2.30;;;;;;;;;;4563385;27;20585;-63
2022/12/18 03:37:21;;;;;;;2.50;2.20;;;;;;;;;;4574100;27;20032;-63
2022/12/18 03:39:32;;;;;;;3.10;2.33;;;;;;;;;;4566419;27;20037;-63
2022/12/18 03:41:47;;;;;;;3.20;2.60;;;;;;;;;;4573529;27;20681;-63
2022/12/18 03:44:11;;;;;;;2.35;2.15;;;;;;;;;;4583303;27;20078;-63
2022/12/18 03:46:33;;;;;;;2.38;2.13;;;;;;;;;;4564794;27;20033;-63
2022/12/18 03:48:46;;;;;;;2.40;2.17;;;;;;;;;;4562728;27;20079;-63
2022/12/18 03:51:14;;;;;;;2.50;2.30;;;;;;;;;;4574386;27;20136;-63
2022/12/18 03:53:39;;;;;;;2.30;2.10;;;;;;;;;;4574233;27;20181;-63
2022/12/18 03:55:51;;;;;;;2.05;1.85;;;;;;;;;;4581348;27;20016;-63
2022/12/18 03:58:02;;;;;;;2.67;2.17;;;;;;;;;;4550102;27;20041;-64
2022/12/18 04:00:22;;;;;;;1.70;1.60;;;;;;;;;;4567626;27;20128;-63
2022/12/18 04:02:42;;;;;;;2.10;1.90;;;;;;;;;;4582738;27;20055;-63
2022/12/18 04:04:54;;;;;;;2.20;2.00;;;;;;;;;;4580667;27;20040;-64
2022/12/18 04:07:06;;;;;;;2.15;1.95;;;;;;;;;;4582135;27;20578;-63
2022/12/18 04:09:19;;;;;;;1.90;1.80;;;;;;;;;;4573102;27;20036;-63
2022/12/18 04:11:30;;;;;;;2.15;1.80;;;;;;;;;;4567689;27;20044;-63
2022/12/18 04:13:42;;;;;;;1.83;1.67;;;;;;;;;;4568052;27;20536;-63
2022/12/18 04:15:59;;;;;;;2.20;2.00;;;;;;;;;;4582328;27;20554;-63
2022/12/18 04:18:09;;;;;;;2.60;2.13;;;;;;;;;;4564187;27;20032;-63
2022/12/18 04:20:23;;;;;;;2.30;2.10;;;;;;;;;;4565968;27;20043;-63
2022/12/18 04:22:33;;;;;;;2.55;2.03;;;;;;;;;;4574694;27;20047;-63
2022/12/18 04:24:44;;;;;;;2.08;1.88;;;;;;;;;;4580879;27;20035;-63
2022/12/18 04:27:01;;;;;;;2.33;1.90;;;;;;;;;;4565924;27;20044;-63
2022/12/18 04:29:16;;;;;;;2.05;1.80;;;;;;;;;;4567531;27;20059;-63
2022/12/18 04:31:27;;;;;;;2.03;1.85;;;;;;;;;;4573606;27;20646;-62
2022/12/18 04:33:38;;;;;;;2.67;2.28;;;;;;;;;;4567203;27;20544;-63
2022/12/18 04:35:48;;;;;;;2.13;1.90;;;;;;;;;;4569081;27;20143;-63
2022/12/18 04:37:58;;;;;;;1.83;1.70;;;;;;;;;;4579600;27;20515;-63
2022/12/18 04:40:09;;;;;;;2.03;1.83;;;;;;;;;;4570158;27;20119;-63
2022/12/18 04:42:24;;;;;;;2.40;1.98;;;;;;;;;;4573623;27;20032;-63
2022/12/18 04:44:36;;;;;;;2.17;1.98;;;;;;;;;;4568122;27;20036;-63
2022/12/18 04:46:46;;;;;;;2.28;2.08;;;;;;;;;;4583942;27;20032;-63
2022/12/18 04:48:56;;;;;;;1.80;1.70;;;;;;;;;;4551111;27;20028;-63
2022/12/18 04:51:11;;;;;;;2.83;2.17;;;;;;;;;;4581590;27;20412;-63
2022/12/18 04:53:23;;;;;;;3.15;2.33;;;;;;;;;;4583165;27;20598;-63
2022/12/18 04:55:33;;;;;;;2.47;2.28;;;;;;;;;;4584266;27;20023;-63
2022/12/18 04:57:43;;;;;;;2.45;2.13;;;;;;;;;;4583399;27;20035;-63
2022/12/18 04:59:54;;;;;;;2.08;1.88;;;;;;;;;;4567226;27;20139;-63
2022/12/18 05:02:04;;;;;;;2.10;1.90;;;;;;;;;;4580691;27;20036;-63
2022/12/18 05:04:14;;;;;;;2.38;2.17;;;;;;;;;;4582243;27;20443;-63
2022/12/18 05:06:24;;;;;;;2.22;1.95;;;;;;;;;;4583352;27;20054;-63
2022/12/18 05:08:35;;;;;;;2.20;2.00;;;;;;;;;;4579937;27;20038;-63
2022/12/18 05:10:45;;;;;;;2.20;2.00;;;;;;;;;;4581114;27;20036;-63
2022/12/18 05:12:58;;;;;;;2.22;2.00;;;;;;;;;;4580310;27;20603;-63
2022/12/18 05:15:09;;;;;;;2.08;1.88;;;;;;;;;;4580386;27;20648;-63
2022/12/18 05:17:19;;;;;;;2.13;1.92;;;;;;;;;;4564539;27;20033;-63
2022/12/18 05:19:29;;;;;;;2.60;2.17;;;;;;;;;;4580774;27;20488;-63
2022/12/18 05:21:40;;;;;;;2.20;2.00;;;;;;;;;;4580996;27;20036;-63
2022/12/18 05:23:50;;;;;;;2.25;1.80;;;;;;;;;;4581979;27;20066;-63
2022/12/18 05:26:02;;;;;;;2.10;1.90;;;;;;;;;;4565356;27;20137;-63
2022/12/18 05:28:12;;;;;;;2.30;2.10;;;;;;;;;;4579788;27;20031;-63
2022/12/18 05:30:22;;;;;;;2.45;2.00;;;;;;;;;;4580915;27;20479;-63
2022/12/18 05:32:32;;;;;;;2.22;2.03;;;;;;;;;;4563884;27;20230;-63
2022/12/18 05:34:43;;;;;;;2.10;1.90;;;;;;;;;;4582574;27;20035;-63
2022/12/18 05:36:53;;;;;;;1.95;1.75;;;;;;;;;;4579939;27;20193;-63
2022/12/18 05:39:03;;;;;;;2.10;1.90;;;;;;;;;;4565773;27;20036;-63
2022/12/18 05:41:14;;;;;;;2.33;2.08;;;;;;;;;;4567058;27;20051;-63
2022/12/18 05:43:25;;;;;;;2.20;1.90;;;;;;;;;;4549158;27;20572;-63
2022/12/18 05:45:38;;;;;;;2.55;2.10;;;;;;;;;;4581784;27;20032;-63
2022/12/18 05:47:48;;;;;;;1.98;1.77;;;;;;;;;;4565590;27;20103;-63
2022/12/18 05:49:59;;;;;;;2.22;1.80;;;;;;;;;;4579934;27;20032;-63
2022/12/18 05:52:09;;;;;;;1.83;1.73;;;;;;;;;;4581935;27;20039;-63
2022/12/18 05:54:19;;;;;;;2.28;2.08;;;;;;;;;;4580529;27;20040;-63
2022/12/18 05:56:30;;;;;;;2.03;1.83;;;;;;;;;;4583505;27;20119;-63
2022/12/18 05:58:40;;;;;;;1.95;1.75;;;;;;;;;;4566510;27;20036;-63
2022/12/18 06:00:51;;;;;;;1.85;1.70;;;;;;;;;;4582028;27;20028;-63
2022/12/18 06:03:01;;;;;;;2.00;1.80;;;;;;;;;;4573751;27;20044;-63
2022/12/18 06:05:11;;;;;;;2.08;1.70;;;;;;;;;;4581589;27;20151;-63
2022/12/18 06:07:22;;;;;;;1.70;1.60;;;;;;;;;;4581951;27;20035;-63
2022/12/18 06:09:32;;;;;;;2.10;1.83;;;;;;;;;;4582027;27;20055;-63
2022/12/18 06:11:42;;;;;;;2.05;1.80;;;;;;;;;;4582799;27;20036;-63
2022/12/18 06:13:53;;;;;;;2.17;1.98;;;;;;;;;;4582194;27;20044;-63
2022/12/18 06:16:04;;;;;;;2.67;1.80;;;;;;;;;;4580759;27;20039;-63
2022/12/18 06:18:14;;;;;;;2.00;1.80;;;;;;;;;;4566884;27;20028;-63
2022/12/18 06:20:25;;;;;;;1.73;1.63;;;;;;;;;;4567302;27;20052;-63
2022/12/18 06:22:35;;;;;;;2.13;1.90;;;;;;;;;;4580901;27;20515;-63
2022/12/18 06:24:45;;;;;;;1.80;1.70;;;;;;;;;;4583292;27;20494;-63
2022/12/18 06:26:56;;;;;;;1.90;1.70;;;;;;;;;;4582308;27;20036;-62
2022/12/18 06:29:06;;;;;;;1.70;1.58;;;;;;;;;;4582714;27;20040;-63
2022/12/18 06:31:16;;;;;;;2.20;1.70;;;;;;;;;;4582514;27;20089;-63
2022/12/18 06:33:27;;;;;;;1.60;1.50;;;;;;;;;;4568640;27;20071;-62
2022/12/18 06:35:38;;;;;;;1.92;1.73;;;;;;;;;;4584534;27;20833;-63
2022/12/18 06:37:48;;;;;;;1.80;1.48;;;;;;;;;;4583618;27;20047;-63
2022/12/18 06:39:58;;;;;;;1.67;1.58;;;;;;;;;;4583685;27;20038;-66
2022/12/18 06:42:09;;;;;;;2.42;1.63;;;;;;;;;;4584881;27;20027;-63
2022/12/18 06:44:19;;;;;;;2.00;1.75;;;;;;;;;;4585843;27;20488;-63
2022/12/18 06:46:29;;;;;;;1.60;1.50;;;;;;;;;;4566446;27;20055;-63
2022/12/18 06:48:40;;;;;;;1.98;1.77;;;;;;;;;;4583565;27;20040;-63
2022/12/18 06:50:50;;;;;;;1.73;1.63;;;;;;;;;;4584051;27;20043;-63
2022/12/18 06:53:00;;;;;;;1.77;1.60;;;;;;;;;;4584524;27;20127;-63
2022/12/18 06:55:11;;;;;;;1.75;1.65;;;;;;;;;;4569011;27;20485;-63
2022/12/18 06:57:21;;;;;;;1.88;1.70;;;;;;;;;;4585085;27;20036;-63
2022/12/18 06:59:31;;;;;;;1.88;1.63;;;;;;;;;;4583670;27;20401;-63
2022/12/18 07:01:42;;;;;;;1.88;1.70;;;;;;;;;;4584051;27;20127;-63
2022/12/18 07:03:54;;;;;;;1.75;1.65;;;;;;;;;;4570077;27;20047;-63
2022/12/18 07:06:04;;;;;;;1.70;1.60;;;;;;;;;;4586075;27;20028;-63
2022/12/18 07:08:14;;;;;;;1.80;1.70;;;;;;;;;;4584685;27;20480;-63
2022/12/18 07:10:25;;;;;;;1.60;1.50;;;;;;;;;;4584468;27;20166;-64
2022/12/18 07:12:35;;;;;;;1.85;1.60;;;;;;;;;;4583469;27;20047;-63
2022/12/18 07:14:45;;;;;;;1.70;1.40;;;;;;;;;;4570611;27;20040;-63
2022/12/18 07:16:56;;;;;;;2.08;1.70;;;;;;;;;;4584791;27;20468;-63
2022/12/18 07:19:06;;;;;;;1.70;1.60;;;;;;;;;;4584477;27;20040;-63
2022/12/18 07:21:18;;;;;;;1.70;1.42;;;;;;;;;;4585921;27;20903;-63
2022/12/18 07:23:28;;;;;;;1.90;1.63;;;;;;;;;;4583496;27;20035;-63
2022/12/18 07:25:39;;;;;;;1.75;1.65;;;;;;;;;;4583480;27;20496;-64
2022/12/18 07:27:49;;;;;;;1.50;1.40;;;;;;;;;;4584855;27;20032;-63
2022/12/18 07:30:00;;;;;;;1.50;1.40;;;;;;;;;;4581833;27;20047;-64
2022/12/18 07:32:10;;;;;;;1.65;1.52;;;;;;;;;;4583490;27;20043;-64
2022/12/18 07:34:20;;;;;;;1.95;1.67;;;;;;;;;;4568553;27;20044;-63
2022/12/18 07:36:31;;;;;;;1.77;1.67;;;;;;;;;;4583357;27;20044;-63
2022/12/18 07:38:41;;;;;;;1.63;1.50;;;;;;;;;;4568505;27;20530;-63
2022/12/18 07:40:51;;;;;;;1.67;1.50;;;;;;;;;;4564567;27;20535;-63
2022/12/18 07:43:02;;;;;;;2.53;1.58;;;;;;;;;;4581737;27;20035;-64
2022/12/18 07:45:12;;;;;;;1.67;1.50;;;;;;;;;;4582560;27;20047;-63
2022/12/18 07:47:22;;;;;;;1.85;1.50;;;;;;;;;;4584274;27;20115;-63
2022/12/18 07:49:33;;;;;;;2.28;1.80;;;;;;;;;;4582649;27;20062;-63
2022/12/18 07:51:45;;;;;;;1.58;1.30;;;;;;;;;;4582445;27;20464;-63
2022/12/18 07:53:56;;;;;;;2.30;1.50;;;;;;;;;;4582436;27;20036;-61
2022/12/18 07:56:08;;;;;;;1.67;1.58;;;;;;;;;;4565496;27;20043;-62
2022/12/18 07:58:18;;;;;;;1.40;1.30;;;;;;;;;;4566410;27;20031;-63
2022/12/18 08:00:29;;;;;;;1.58;1.48;;;;;;;;;;4568137;27;20455;-62
2022/12/18 08:02:39;;;;;;;1.80;1.50;;;;;;;;;;4582340;27;20079;-62
2022/12/18 08:04:50;;;;;;;2.17;1.27;;;;;;;;;;4565372;27;20048;-64
2022/12/18 08:07:00;;;;;;;1.60;1.50;;;;;;;;;;4581053;27;20047;-63
2022/12/18 08:09:10;;;;;;;1.48;1.38;;;;;;;;;;4581173;27;20043;-60
2022/12/18 08:11:21;;;;;;;1.88;1.60;;;;;;;;;;4565211;27;20434;-61
2022/12/18 08:13:31;;;;;;;1.50;1.40;;;;;;;;;;4579900;27;20096;-61
2022/12/18 08:15:42;;;;;;;1.63;1.48;;;;;;;;;;4581226;27;20093;-61
2022/12/18 08:17:55;;;;;;;1.50;1.23;;;;;;;;;;4561641;27;20032;-61
2022/12/18 08:20:06;;;;;;;1.40;1.30;;;;;;;;;;4582427;27;20055;-68
2022/12/18 08:22:17;;;;;;;1.40;1.30;;;;;;;;;;4568262;27;20484;-72
2022/12/18 08:24:27;;;;;;;1.45;1.30;;;;;;;;;;4583051;27;20039;-63
2022/12/18 08:26:38;;;;;;;2.55;1.40;;;;;;;;;;4580501;27;20057;-64
2022/12/18 08:28:49;;;;;;;2.63;1.40;;;;;;;;;;4565440;27;20624;-61
2022/12/18 08:30:59;;;;;;;1.50;1.40;;;;;;;;;;4566161;27;20036;-64
2022/12/18 08:33:10;;;;;;;1.60;1.50;;;;;;;;;;4580709;27;20503;-63
2022/12/18 08:35:20;;;;;;;1.33;1.23;;;;;;;;;;4581010;27;20031;-68
2022/12/18 08:37:31;;;;;;;1.63;1.52;;;;;;;;;;4565211;27;20124;-62
2022/12/18 08:39:41;;;;;;;1.50;1.40;;;;;;;;;;4565751;27;20190;-63
2022/12/18 08:44:39;;;;;;;1.27;1.17;;;;;;;;;;4581936;27;20036;-63
2022/12/18 08:46:49;;;;;;;1.42;1.30;;;;;;;;;;4582200;27;20769;-63
2022/12/18 08:48:59;;;;;;;1.67;1.35;;;;;;;;;;4547478;27;20036;-62
2022/12/18 08:51:10;;;;;;;1.40;1.30;;;;;;;;;;4581781;27;20028;-63
2022/12/18 08:53:20;;;;;;;1.30;1.20;;;;;;;;;;4580986;27;20055;-63
2022/12/18 08:55:30;;;;;;;2.47;1.40;;;;;;;;;;4548344;27;20083;-63
2022/12/18 08:57:40;;;;;;;1.45;1.35;;;;;;;;;;4580364;27;20062;-63
2022/12/18 08:59:51;;;;;;;1.50;1.40;;;;;;;;;;4572570;27;20036;-63
2022/12/18 09:02:01;;;;;;;1.60;1.33;;;;;;;;;;4581515;27;20062;-63
2022/12/18 09:04:12;;;;;;;1.50;1.40;;;;;;;;;;4581333;27;20209;-63
2022/12/18 09:06:23;;;;;;;2.22;1.25;;;;;;;;;;4580910;27;20055;-62
2022/12/18 09:08:36;;;;;;;1.83;1.40;;;;;;;;;;4581300;27;20040;-62
2022/12/18 09:10:48;;;;;;;1.83;1.38;;;;;;;;;;4580786;27;20122;-62
2022/12/18 09:12:58;;;;;;;2.10;1.30;;;;;;;;;;4565542;27;20037;-62
2022/12/18 09:15:09;;;;;;;3.20;1.60;;;;;;;;;;4581564;27;20043;-62
2022/12/18 09:17:19;;;;;;;2.60;1.45;;;;;;;;;;4582076;27;20846;-62
2022/12/18 09:19:29;;;;;;;1.25;1.13;;;;;;;;;;4580803;27;20119;-62
2022/12/18 09:21:40;;;;;;;1.20;1.10;;;;;;;;;;4581373;27;20048;-62
2022/12/18 09:23:51;;;;;;;1.35;1.20;;;;;;;;;;4581671;27;20036;-63
2022/12/18 09:26:01;;;;;;;3.42;1.42;;;;;;;;;;4580299;27;20035;-63
2022/12/18 09:28:16;;;;;;;3.63;1.30;;;;;;;;;;4581390;27;20024;-63
2022/12/18 09:30:27;;;;;;;3.88;1.70;;;;;;;;;;4579769;27;20151;-62
2022/12/18 09:32:37;;;;;;;1.98;1.65;;;;;;;;;;4579292;27;20038;-63
2022/12/18 09:34:48;;;;;;;2.13;1.60;;;;;;;;;;4580046;27;20047;-62
2022/12/18 09:36:58;;;;;;;2.13;1.50;;;;;;;;;;4581268;27;20151;-63
2022/12/18 09:39:08;;;;;;;2.33;1.70;;;;;;;;;;4579824;27;20028;-63
2022/12/18 09:41:37;;;;;;;2.50;1.60;;;;;;;;;;4581695;27;20031;-63
2022/12/18 09:43:53;;;;;;;3.33;1.90;;;;;;;;;;4581906;27;20021;-62
2022/12/18 09:46:06;;;;;;;2.70;2.00;;;;;;;;;;4581223;27;20032;-62
2022/12/18 09:48:32;;;;;;;3.47;2.38;;;;;;;;;;4579977;27;20032;-63
2022/12/18 09:50:42;;;;;;;2.10;1.90;;;;;;;;;;4579432;27;20588;-65
2022/12/18 09:52:54;;;;;;;5.03;2.08;;;;;;;;;;4571338;27;20075;-62
2022/12/18 09:55:24;;;;;;;2.50;2.00;;;;;;;;;;4579962;27;20040;-63
2022/12/18 09:57:35;;;;;;;4.40;2.45;;;;;;;;;;4580713;27;20101;-63
2022/12/18 09:59:51;;;;;;;4.03;2.35;;;;;;;;;;4581446;27;20388;-63
2022/12/18 10:02:14;;;;;;;4.28;2.17;;;;;;;;;;4578463;27;20105;-63
2022/12/18 10:04:26;;;;;;;5.15;2.60;;;;;;;;;;4564501;27;20108;-64
2022/12/18 10:06:50;;;;;;;2.83;2.30;;;;;;;;;;4583025;27;20772;-65
2022/12/18 10:09:06;;;;;;;4.32;2.70;;;;;;;;;;4564445;27;20047;-61
2022/12/18 10:11:45;;;;;;;2.88;2.45;;;;;;;;;;4583777;27;20058;-66
2022/12/18 10:14:19;;;;;;;3.28;2.60;;;;;;;;;;4564070;27;20056;-65
2022/12/18 10:16:38;;;;;;;3.70;2.92;;;;;;;;;;4575161;27;20790;-66
2022/12/18 10:18:57;;;;;;;4.05;2.78;;;;;;;;;;4582407;27;20587;-65
2022/12/18 10:21:13;;;;;;;4.90;2.97;;;;;;;;;;4582862;27;20032;-64
2022/12/18 10:23:27;;;;;;;3.72;2.72;;;;;;;;;;4575131;27;20114;-62
2022/12/18 10:25:55;;;;;;;3.60;2.88;;;;;;;;;;4583172;27;20032;-65
2022/12/18 10:28:16;;;;;;;3.45;2.70;;;;;;;;;;4583123;27;20048;-63
2022/12/18 10:30:26;;;;;;;4.50;3.00;;;;;;;;;;4584369;27;20027;-62
2022/12/18 10:32:36;;;;;;;3.28;2.72;;;;;;;;;;4583465;27;20059;-62
2022/12/18 10:34:48;;;;;;;3.95;2.80;;;;;;;;;;4583545;27;20150;-63
2022/12/18 10:37:00;;;;;;;4.13;2.90;;;;;;;;;;4548757;27;21520;-63
2022/12/18 10:39:15;;;;;;;3.15;2.78;;;;;;;;;;4582682;27;20036;-63
2022/12/18 10:41:26;;;;;;;5.15;3.08;;;;;;;;;;4581755;27;20035;-64
2022/12/18 10:43:38;;;;;;;3.72;3.10;;;;;;;;;;4582726;27;20641;-63
2022/12/18 10:45:59;;;;;;;5.20;3.50;;;;;;;;;;4584108;27;20074;-63
2022/12/18 10:48:20;;;;;;;4.10;3.30;;;;;;;;;;4551131;27;20155;-62
2022/12/18 10:50:36;;;;;;;3.75;3.40;;;;;;;;;;4582859;27;20593;-63
2022/12/18 10:52:53;;;;;;;4.22;3.60;;;;;;;;;;4566799;27;20024;-63
2022/12/18 10:55:04;;;;;;;3.85;3.42;;;;;;;;;;4582444;27;20130;-63
2022/12/18 10:57:29;;;;;;;8.43;4.13;;;;;;;;;;4582947;27;20230;-63
2022/12/18 10:59:49;;;;;;;4.32;3.47;;;;;;;;;;4545602;27;20226;-63
2022/12/18 11:01:59;;;;;;;4.30;3.90;;;;;;;;;;4566488;27;20047;-63
2022/12/18 11:04:15;;;;;;;5.78;4.20;;;;;;;;;;4581378;27;20072;-63
2022/12/18 11:06:26;;;;;;;4.82;3.83;;;;;;;;;;4567278;27;20032;-63
2022/12/18 11:08:36;;;;;;;4.20;3.80;;;;;;;;;;4583624;27;20039;-63
2022/12/18 11:10:46;;;;;;;6.93;3.85;;;;;;;;;;4583745;27;20127;-63
2022/12/18 11:13:08;;;;;;;5.25;4.20;;;;;;;;;;4583052;27;20099;-65
2022/12/18 11:15:29;;;;;;;8.52;4.40;;;;;;;;;;4583106;27;20487;-63
2022/12/18 11:17:39;;;;;;;7.80;4.05;;;;;;;;;;4580392;27;20036;-62
2022/12/18 11:19:54;;;;;;;9.27;4.60;;;;;;;;;;4581925;27;20027;-62
2022/12/18 11:22:18;;;;;;;7.68;4.43;;;;;;;;;;4568055;27;20039;-62
2022/12/18 11:24:34;;;;;;;11.07;4.60;;;;;;;;;;4582590;27;20074;-62
2022/12/18 11:26:44;;;;;;;1.80;1.70;;;;;;;;;;4573827;27;20027;-63
2022/12/18 11:29:08;;;;;;;3.17;2.13;;;;;;;;;;4581906;27;20048;-62
2022/12/18 11:31:20;;;;;;;2.55;1.98;;;;;;;;;;4587589;22;20042;-62
2022/12/18 11:33:31;;;;;;;2.38;1.90;;;;;;;;;;4556025;28;20040;-62
2022/12/18 11:35:49;;;;;;;2.63;1.80;;;;;;;;;;4556322;28;20028;-61
2022/12/18 11:38:05;;;;;;;2.35;1.85;;;;;;;;;;4574651;28;20115;-61
2022/12/18 11:40:18;;;;;;;2.17;1.75;;;;;;;;;;4561344;28;20044;-61
2022/12/18 11:42:31;;;;;;;2.25;1.90;;;;;;;;;;4554193;28;20131;-63
2022/12/18 11:44:45;;;;;;;2.28;1.98;;;;;;;;;;4507568;28;20111;-61
2022/12/18 11:47:00;;;;;;;2.22;2.03;;;;;;;;;;4519981;28;20629;-61
2022/12/18 11:49:13;;;;;;;2.05;1.77;;;;;;;;;;4520388;28;20037;-61
2022/12/18 11:51:29;;;;;;;2.83;2.20;;;;;;;;;;4538605;28;20036;-61
2022/12/18 11:53:40;;;;;;;3.08;2.13;;;;;;;;;;4538443;28;21167;-60
2022/12/18 11:55:50;;;;;;;2.30;1.80;;;;;;;;;;4520026;28;20041;-61
2022/12/18 11:58:19;;;;;;;2.10;1.90;;;;;;;;;;4537881;28;20055;-60
2022/12/18 12:00:30;;;;;;;2.38;1.85;;;;;;;;;;4519446;28;20037;-62
2022/12/18 12:02:59;;;;;;;2.05;1.70;;;;;;;;;;4526754;28;20331;-62
2022/12/18 12:05:33;;;;;;;1.67;1.58;;;;;;;;;;4534440;28;20132;-62
2022/12/18 12:07:49;;;;;;;2.90;2.03;;;;;;;;;;4536459;28;20062;-61
2022/12/18 12:10:02;;;;;;;3.00;2.33;;;;;;;;;;4536586;28;20037;-62
2022/12/18 12:12:12;;;;;;;2.25;2.05;;;;;;;;;;4518718;28;20041;-62
2022/12/18 12:14:26;;;;;;;2.65;1.90;;;;;;;;;;4536120;28;20041;-62
2022/12/18 12:16:36;;;;;;;2.72;2.33;;;;;;;;;;4535972;28;20100;-61
2022/12/18 12:19:19;;;;;;;2.83;2.30;;;;;;;;;;4518962;28;20047;-62
2022/12/18 12:21:35;;;;;;;2.25;1.80;;;;;;;;;;4487261;28;20070;-62
2022/12/18 12:23:49;;;;;;;1.95;1.70;;;;;;;;;;4537556;28;20875;-64
2022/12/18 12:26:11;;;;;;;1.75;1.40;;;;;;;;;;4508588;28;20087;-60
2022/12/18 12:28:21;;;;;;;1.70;1.48;;;;;;;;;;4535999;28;20044;-60
2022/12/18 12:30:34;;;;;;;2.08;1.50;;;;;;;;;;4535988;28;20405;-60
2022/12/18 12:32:47;;;;;;;1.95;1.30;;;;;;;;;;4536250;28;20045;-60
2022/12/18 12:35:01;;;;;;;1.70;1.50;;;;;;;;;;4536256;28;20138;-61
2022/12/18 12:37:26;;;;;;;1.90;1.70;;;;;;;;;;4536502;28;20049;-61
2022/12/18 12:39:38;;;;;;;2.03;1.52;;;;;;;;;;4536850;28;20033;-61
2022/12/18 12:44:23;;;;;;;1.70;1.50;;;;;;;;;;4536179;28;20065;-61
2022/12/18 12:46:36;;;;;;;1.70;1.60;;;;;;;;;;4536494;28;20117;-60
2022/12/18 12:48:48;;;;;;;1.60;1.50;;;;;;;;;;4536373;28;20041;-62
2022/12/18 12:51:00;;;;;;;2.17;1.70;;;;;;;;;;4536441;28;20788;-61
2022/12/18 12:53:21;;;;;;;2.10;1.60;;;;;;;;;;4536769;28;20115;-62
2022/12/18 12:55:31;;;;;;;2.35;1.63;;;;;;;;;;4518658;28;20056;-61
2022/12/18 12:57:48;;;;;;;2.15;1.75;;;;;;;;;;4536048;28;20094;-62
2022/12/18 13:00:19;;;;;;;1.60;1.50;;;;;;;;;;4536122;28;20147;-61
2022/12/18 13:02:44;;;;;;;1.65;1.50;;;;;;;;;;4535848;28;20512;-61
2022/12/18 13:05:03;;;;;;;2.22;1.63;;;;;;;;;;4534204;28;20040;-60
2022/12/18 13:07:33;;;;;;;1.65;1.48;;;;;;;;;;4536705;28;20059;-60
2022/12/18 13:10:02;;;;;;;2.20;2.00;;;;;;;;;;4536175;28;20067;-61
2022/12/18 13:14:45;;;;;;;2.00;1.60;;;;;;;;;;4537195;28;20091;-60
2022/12/18 13:17:15;;;;;;;2.00;1.60;;;;;;;;;;4535472;28;20040;-60
2022/12/18 13:19:26;;;;;;;1.90;1.58;;;;;;;;;;4537025;28;20033;-60
2022/12/18 13:21:36;;;;;;;1.83;1.60;;;;;;;;;;4536272;28;20041;-60
2022/12/18 13:23:47;;;;;;;2.00;1.45;;;;;;;;;;4537278;28;20032;-60
2022/12/18 13:25:58;;;;;;;1.33;1.20;;;;;;;;;;4537170;28;20582;-60
2022/12/18 13:28:11;;;;;;;1.33;1.15;;;;;;;;;;4536945;28;20040;-61
2022/12/18 13:30:30;;;;;;;2.00;1.70;;;;;;;;;;4517722;28;20190;-60